createdAt,value
2019-02-23T00:01:13.464Z,98.90
2019-02-23T00:03:43.002Z,98.80
2019-02-23T00:06:12.587Z,99.10
2019-02-23T00:08:42.731Z,98.80
2019-02-23T00:11:12.403Z,98.70
2019-02-23T00:13:41.965Z,98.70
2019-02-23T00:16:12.436Z,98.70
2019-02-23T00:18:41.971Z,98.90
2019-02-23T00:21:12.011Z,98.70
2019-02-23T00:23:42.959Z,98.40
2019-02-23T00:26:12.563Z,98.40
2019-02-23T00:28:42.260Z,98.40
2019-02-23T00:31:12.092Z,98.30
2019-02-23T00:33:42.004Z,98.50
2019-02-23T00:36:12.253Z,98.50
2019-02-23T00:38:42.131Z,98.50
2019-02-23T00:41:11.931Z,98.70
2019-02-23T00:43:42.336Z,98.50
2019-02-23T00:46:11.936Z,98.50
2019-02-23T00:48:41.806Z,98.40
2019-02-23T00:51:11.745Z,98.40
2019-02-23T00:53:42.862Z,98.50
2019-02-23T00:56:12.473Z,98.70
2019-02-23T00:58:42.028Z,99.10
2019-02-23T01:01:11.629Z,99.20
2019-02-23T01:03:41.564Z,99.20
2019-02-23T01:06:11.645Z,99.20
2019-02-23T01:08:41.434Z,99.30
2019-02-23T01:11:11.456Z,99.10
2019-02-23T01:13:41.529Z,99.20
2019-02-23T01:16:11.576Z,99.20
2019-02-23T01:18:42.087Z,99.10
2019-02-23T01:21:11.656Z,99.20
2019-02-23T01:23:41.850Z,99.10
2019-02-23T01:26:11.396Z,99.10
2019-02-23T01:28:41.327Z,99.00
2019-02-23T01:31:11.551Z,98.90
2019-02-23T01:33:41.088Z,99.00
2019-02-23T01:36:11.203Z,98.80
2019-02-23T01:38:41.031Z,99.20
2019-02-23T01:41:11.011Z,99.00
2019-02-23T01:43:41.163Z,99.10
2019-02-23T01:46:11.087Z,98.80
2019-02-23T01:48:40.751Z,98.60
2019-02-23T01:51:10.839Z,98.60
2019-02-23T01:53:40.738Z,98.00
2019-02-23T01:56:10.831Z,97.60
2019-02-23T01:58:40.755Z,97.40
2019-02-23T02:01:11.259Z,97.50
2019-02-23T02:03:40.788Z,97.40
2019-02-23T02:06:10.867Z,97.40
2019-02-23T02:08:41.040Z,97.30
2019-02-23T02:11:10.641Z,97.10
2019-02-23T02:13:40.463Z,97.00
2019-02-23T02:16:10.415Z,96.70
2019-02-23T02:18:40.287Z,96.60
2019-02-23T02:21:10.544Z,96.60
2019-02-23T02:23:40.442Z,96.50
2019-02-23T02:26:10.416Z,96.00
2019-02-23T02:28:40.250Z,95.70
2019-02-23T02:31:10.489Z,95.50
2019-02-23T02:34:05.534Z,95.30
2019-02-23T02:36:35.551Z,95.30
2019-02-23T02:39:10.564Z,95.50
2019-02-23T02:41:40.240Z,95.90
2019-02-23T02:44:10.113Z,95.80
2019-02-23T02:46:39.975Z,95.80
2019-02-23T02:49:10.082Z,95.80
2019-02-23T02:51:39.937Z,95.80
2019-02-23T02:54:09.948Z,95.80
2019-02-23T02:56:39.842Z,95.90
2019-02-23T02:59:09.732Z,96.10
2019-02-23T03:01:39.679Z,96.20
2019-02-23T03:04:09.666Z,96.50
2019-02-23T03:06:39.521Z,96.70
2019-02-23T03:09:11.565Z,97.20
2019-02-23T03:11:41.186Z,97.60
2019-02-23T03:14:10.772Z,98.10
2019-02-23T03:16:40.419Z,98.50
2019-02-23T03:19:10.027Z,98.70
2019-02-23T03:21:39.665Z,98.90
2019-02-23T03:24:09.366Z,98.90
2019-02-23T03:26:39.245Z,99.20
2019-02-23T03:29:09.469Z,99.30
2019-02-23T03:31:39.137Z,99.40
2019-02-23T03:34:09.214Z,99.50
2019-02-23T03:36:39.103Z,99.40
2019-02-23T03:39:09.060Z,99.40
2019-02-23T03:41:38.971Z,99.50
2019-02-23T03:44:08.979Z,99.60
2019-02-23T03:46:39.116Z,99.80
2019-02-23T03:49:09.547Z,99.80
2019-02-23T03:51:39.154Z,99.80
2019-02-23T03:54:08.874Z,99.90
2019-02-23T03:56:38.785Z,99.90
2019-02-23T03:59:08.732Z,99.90
2019-02-23T04:01:38.658Z,99.90
2019-02-23T04:04:08.597Z,99.90
2019-02-23T04:06:38.526Z,99.90
2019-02-23T04:09:08.748Z,99.90
2019-02-23T04:11:38.626Z,99.90
2019-02-23T04:14:08.227Z,99.90
2019-02-23T04:16:37.832Z,99.90
2019-02-23T04:19:07.360Z,99.90
2019-02-23T04:21:36.959Z,99.90
2019-02-23T04:24:06.519Z,99.90
2019-02-23T04:26:36.119Z,99.90
2019-02-23T04:29:05.720Z,99.90
2019-02-23T04:31:36.102Z,99.90
2019-02-23T04:34:05.784Z,99.90
2019-02-23T04:36:35.391Z,99.70
2019-02-23T04:39:07.094Z,99.90
2019-02-23T04:41:36.707Z,99.80
2019-02-23T04:44:06.498Z,99.90
2019-02-23T04:46:36.052Z,99.90
2019-02-23T04:49:05.711Z,99.90
2019-02-23T04:51:35.323Z,99.90
2019-02-23T04:54:05.663Z,99.90
2019-02-23T04:56:35.198Z,99.90
2019-02-23T04:59:06.224Z,99.90
2019-02-23T05:01:38.480Z,99.90
2019-02-23T05:04:08.510Z,99.90
2019-02-23T05:06:38.523Z,99.90
2019-02-23T05:09:08.476Z,99.90
2019-02-23T05:11:38.388Z,99.90
2019-02-23T05:14:08.276Z,99.90
2019-02-23T05:16:38.210Z,99.90
2019-02-23T05:19:08.220Z,99.90
2019-02-23T05:21:38.405Z,99.90
2019-02-23T05:24:08.289Z,99.90
2019-02-23T05:26:38.167Z,99.90
2019-02-23T05:29:08.067Z,99.90
2019-02-23T05:31:38.012Z,99.90
2019-02-23T05:34:08.339Z,99.90
2019-02-23T05:36:37.874Z,99.90
2019-02-23T05:39:08.076Z,99.90
2019-02-23T05:41:37.802Z,99.90
2019-02-23T05:44:07.876Z,99.90
2019-02-23T05:46:37.763Z,99.90
2019-02-23T05:49:07.706Z,99.90
2019-02-23T05:51:38.854Z,99.90
2019-02-23T05:54:08.927Z,99.90
2019-02-23T05:56:38.456Z,99.90
2019-02-23T05:59:07.988Z,99.90
2019-02-23T06:01:37.761Z,99.90
2019-02-23T06:04:07.764Z,99.90
2019-02-23T06:06:37.292Z,99.90
2019-02-23T06:09:07.488Z,99.90
2019-02-23T06:11:37.095Z,99.90
2019-02-23T06:14:06.632Z,99.90
2019-02-23T06:16:36.339Z,99.90
2019-02-23T06:19:05.947Z,99.90
2019-02-23T06:21:35.631Z,99.90
2019-02-23T06:24:05.191Z,99.90
2019-02-23T06:26:34.806Z,99.90
2019-02-23T06:29:04.472Z,99.90
2019-02-23T06:31:34.033Z,99.90
2019-02-23T06:34:12.518Z,99.90
2019-02-23T06:36:35.401Z,99.90
2019-02-23T06:39:05.797Z,99.90
2019-02-23T06:41:35.369Z,99.90
2019-02-23T06:44:05.429Z,99.90
2019-02-23T06:46:35.067Z,99.90
2019-02-23T06:49:04.749Z,99.90
2019-02-23T06:51:34.288Z,99.90
2019-02-23T06:54:04.361Z,99.90
2019-02-23T06:56:34.043Z,99.90
2019-02-23T06:59:03.791Z,99.90
2019-02-23T07:01:33.560Z,99.90
2019-02-23T07:04:03.111Z,99.90
2019-02-23T07:06:32.696Z,99.90
2019-02-23T07:09:02.771Z,99.90
2019-02-23T07:11:32.664Z,99.90
2019-02-23T07:14:02.707Z,99.90
2019-02-23T07:16:32.799Z,99.90
2019-02-23T07:19:02.544Z,99.90
2019-02-23T07:21:32.456Z,99.90
2019-02-23T07:24:02.812Z,99.90
2019-02-23T07:26:32.565Z,99.90
2019-02-23T07:29:02.385Z,99.90
2019-02-23T07:31:32.429Z,99.90
2019-02-23T07:34:02.341Z,99.90
2019-02-23T07:36:32.256Z,99.90
2019-02-23T07:39:02.206Z,99.90
2019-02-23T07:41:32.140Z,99.90
2019-02-23T07:44:03.455Z,99.90
2019-02-23T07:46:33.943Z,99.90
2019-02-23T07:49:03.552Z,99.90
2019-02-23T07:51:33.159Z,99.90
2019-02-23T07:54:02.743Z,99.90
2019-02-23T07:56:32.676Z,99.90
2019-02-23T07:59:03.774Z,99.90
2019-02-23T08:01:34.143Z,99.90
2019-02-23T08:04:03.747Z,99.90
2019-02-23T08:06:33.299Z,99.90
2019-02-23T08:09:03.016Z,99.90
2019-02-23T08:11:32.715Z,99.90
2019-02-23T08:14:02.329Z,99.90
2019-02-23T08:16:31.955Z,99.90
2019-02-23T08:19:01.747Z,99.90
2019-02-23T08:21:35.311Z,99.90
2019-02-23T08:24:05.432Z,99.90
2019-02-23T08:26:35.037Z,99.90
2019-02-23T08:29:04.655Z,99.90
2019-02-23T08:31:34.219Z,99.90
2019-02-23T08:34:04.367Z,99.90
2019-02-23T08:36:33.907Z,99.90
2019-02-23T08:39:03.814Z,99.90
2019-02-23T08:41:33.427Z,99.90
2019-02-23T08:44:03.106Z,99.90
2019-02-23T08:46:33.347Z,99.90
2019-02-23T08:49:02.959Z,99.90
2019-02-23T08:51:33.336Z,99.80
2019-02-23T08:54:03.276Z,99.30
2019-02-23T08:56:34.138Z,99.00
2019-02-23T08:59:03.733Z,99.30
2019-02-23T09:01:34.562Z,98.90
2019-02-23T09:04:04.231Z,98.70
2019-02-23T09:06:33.831Z,98.70
2019-02-23T09:09:04.773Z,98.40
2019-02-23T09:11:53.963Z,98.50
2019-02-23T09:14:23.538Z,98.20
2019-02-23T09:16:53.920Z,98.00
2019-02-23T09:19:23.528Z,97.80
2019-02-23T09:21:53.747Z,97.50
2019-02-23T09:24:23.824Z,97.80
2019-02-23T09:26:53.955Z,97.90
2019-02-23T09:29:23.822Z,97.50
2019-02-23T09:31:53.838Z,97.50
2019-02-23T09:34:23.989Z,97.00
2019-02-23T09:36:54.071Z,95.80
2019-02-23T09:39:23.907Z,94.30
2019-02-23T09:41:53.816Z,93.40
2019-02-23T09:44:24.344Z,92.90
2019-02-23T09:46:53.955Z,92.60
2019-02-23T09:49:23.672Z,92.20
2019-02-23T09:51:53.904Z,92.40
2019-02-23T09:54:24.377Z,91.90
2019-02-23T09:56:53.916Z,91.40
2019-02-23T09:59:23.556Z,90.80
2019-02-23T10:01:53.543Z,90.70
2019-02-23T10:04:23.440Z,90.10
2019-02-23T10:06:53.469Z,90.00
2019-02-23T10:09:23.326Z,90.10
2019-02-23T10:11:53.415Z,88.90
2019-02-23T10:14:23.678Z,86.30
2019-02-23T10:16:53.317Z,82.60
2019-02-23T10:19:23.471Z,80.00
2019-02-23T10:21:53.421Z,78.40
2019-02-23T10:24:23.400Z,77.50
2019-02-23T10:26:53.379Z,76.50
2019-02-23T10:29:23.332Z,75.30
2019-02-23T10:31:53.172Z,74.20
2019-02-23T10:34:23.399Z,74.20
2019-02-23T10:36:53.108Z,74.90
2019-02-23T10:39:23.601Z,74.30
2019-02-23T10:41:53.379Z,72.30
2019-02-23T10:44:22.939Z,73.40
2019-02-23T10:46:52.767Z,74.70
2019-02-23T10:49:22.383Z,73.60
2019-02-23T10:51:52.160Z,75.60
2019-02-23T10:54:21.939Z,75.90
2019-02-23T10:56:51.480Z,73.80
2019-02-23T10:59:21.496Z,75.50
2019-02-23T11:01:55.556Z,74.60
2019-02-23T11:04:25.547Z,72.80
2019-02-23T11:06:55.963Z,74.70
2019-02-23T11:09:45.179Z,73.40
2019-02-23T11:12:22.351Z,72.70
2019-02-23T11:15:12.178Z,69.40
2019-02-23T11:17:52.567Z,68.20
2019-02-23T11:20:40.360Z,67.30
2019-02-23T11:23:28.298Z,66.50
2019-02-23T11:26:15.911Z,65.80
2019-02-23T11:29:03.637Z,63.40
2019-02-23T11:31:33.180Z,64.00
2019-02-23T11:34:03.156Z,63.10
2019-02-23T11:36:47.664Z,62.00
2019-02-23T11:39:22.779Z,58.40
2019-02-23T11:41:59.951Z,56.30
2019-02-23T11:44:33.079Z,54.50
2019-02-23T11:47:22.335Z,54.90
2019-02-23T11:50:01.832Z,53.40
2019-02-23T11:52:32.299Z,51.70
2019-02-23T11:55:11.500Z,50.70
2019-02-23T11:57:47.493Z,54.00
2019-02-23T12:00:17.104Z,54.40
2019-02-23T12:02:52.392Z,54.80
2019-02-23T12:05:17.913Z,55.60
2019-02-23T12:07:47.763Z,56.70
2019-02-23T12:10:17.822Z,55.10
2019-02-23T12:12:47.565Z,53.30
2019-02-23T12:15:17.238Z,52.50
2019-02-23T12:17:46.847Z,52.10
2019-02-23T12:20:16.935Z,51.90
2019-02-23T12:22:46.472Z,54.70
2019-02-23T12:25:16.436Z,56.00
2019-02-23T12:27:46.843Z,56.40
2019-02-23T12:30:16.465Z,58.40
2019-02-23T12:32:46.212Z,60.40
2019-02-23T12:35:16.700Z,63.10
2019-02-23T12:37:46.304Z,61.80
2019-02-23T12:40:15.979Z,59.60
2019-02-23T12:42:45.716Z,58.40
2019-02-23T12:45:15.992Z,55.80
2019-02-23T12:47:45.724Z,54.40
2019-02-23T12:50:15.435Z,54.30
2019-02-23T12:52:44.967Z,54.50
2019-02-23T12:55:14.797Z,54.70
2019-02-23T12:57:44.954Z,53.70
2019-02-23T13:00:17.029Z,51.60
2019-02-23T13:02:48.052Z,51.30
2019-02-23T13:05:18.130Z,50.40
2019-02-23T13:07:48.739Z,50.70
2019-02-23T13:10:18.283Z,48.80
2019-02-23T13:13:15.304Z,47.10
2019-02-23T13:15:59.292Z,46.60
2019-02-23T13:18:42.076Z,47.60
2019-02-23T13:21:23.803Z,46.40
2019-02-23T13:24:06.312Z,46.80
2019-02-23T13:26:54.141Z,46.60
2019-02-23T13:29:50.920Z,45.20
2019-02-23T13:32:38.514Z,43.30
2019-02-23T13:35:30.907Z,42.70
2019-02-23T13:38:25.911Z,43.80
2019-02-23T13:41:02.425Z,44.30
2019-02-23T13:43:55.868Z,43.20
2019-02-23T13:46:37.723Z,43.20
2019-02-23T13:49:28.649Z,44.80
2019-02-23T13:52:02.782Z,44.80
2019-02-23T13:55:00.893Z,43.00
2019-02-23T13:57:38.642Z,43.80
2019-02-23T14:00:23.836Z,44.20
2019-02-23T14:03:17.424Z,42.40
2019-02-23T14:06:05.061Z,41.60
2019-02-23T14:08:46.804Z,44.20
2019-02-23T14:11:31.516Z,42.60
2019-02-23T14:14:16.511Z,41.10
2019-02-23T14:16:55.076Z,41.60
2019-02-23T14:19:30.434Z,43.30
2019-02-23T14:22:03.050Z,42.80
2019-02-23T14:24:57.280Z,42.70
2019-02-23T14:27:36.159Z,41.50
2019-02-23T14:30:36.408Z,42.20
2019-02-23T14:33:27.687Z,42.00
2019-02-23T14:36:17.232Z,42.30
2019-02-23T14:38:52.357Z,41.70
2019-02-23T14:41:43.225Z,41.10
2019-02-23T14:44:16.439Z,39.60
2019-02-23T14:46:57.975Z,40.20
2019-02-23T14:49:34.317Z,40.80
2019-02-23T14:52:10.030Z,40.90
2019-02-23T14:55:18.887Z,41.90
2019-02-23T15:01:52.243Z,55.40
2019-02-23T15:04:33.355Z,58.50
2019-02-23T15:07:38.908Z,60.30
2019-02-23T15:10:23.578Z,62.00
2019-02-23T15:13:14.542Z,64.50
2019-02-23T15:15:56.463Z,66.40
2019-02-23T15:18:38.351Z,67.30
2019-02-23T15:21:19.807Z,69.10
2019-02-23T15:24:07.688Z,69.40
2019-02-23T15:26:42.968Z,70.50
2019-02-23T15:29:32.730Z,70.80
2019-02-23T15:32:11.491Z,70.60
2019-02-23T15:34:53.195Z,69.50
2019-02-23T15:37:37.681Z,69.70
2019-02-23T15:40:29.976Z,70.40
2019-02-23T15:43:27.979Z,70.80
2019-02-23T15:46:13.205Z,71.60
2019-02-23T15:49:19.492Z,70.50
2019-02-23T15:51:50.012Z,70.50
2019-02-23T15:54:20.192Z,70.50
2019-02-23T15:56:50.119Z,70.70
2019-02-23T15:59:19.763Z,72.20
2019-02-23T16:01:49.563Z,71.80
2019-02-23T16:04:19.804Z,71.20
2019-02-23T16:06:49.547Z,71.40
2019-02-23T16:09:19.603Z,72.70
2019-02-23T16:11:49.286Z,72.60
2019-02-23T16:14:18.989Z,73.10
2019-02-23T16:16:49.659Z,74.00
2019-02-23T16:19:19.268Z,74.80
2019-02-23T16:21:48.901Z,75.40
2019-02-23T16:24:18.520Z,75.90
2019-02-23T16:26:48.141Z,76.50
2019-02-23T16:29:17.787Z,76.60
2019-02-23T16:31:47.602Z,76.90
2019-02-23T16:34:17.146Z,77.20
2019-02-23T16:36:47.471Z,77.50
2019-02-23T16:39:17.131Z,78.40
2019-02-23T16:41:46.877Z,78.70
2019-02-23T16:44:17.089Z,79.00
2019-02-23T16:46:46.796Z,79.40
2019-02-23T16:49:16.407Z,80.00
2019-02-23T16:51:46.056Z,80.30
2019-02-23T16:54:15.777Z,80.90
2019-02-23T16:56:45.765Z,81.50
2019-02-23T16:59:15.332Z,82.10
2019-02-23T17:01:45.057Z,82.60
2019-02-23T17:04:14.883Z,83.10
2019-02-23T17:06:44.860Z,83.40
2019-02-23T17:09:14.778Z,84.10
2019-02-23T17:11:44.702Z,84.40
2019-02-23T17:14:14.631Z,85.00
2019-02-23T17:16:45.458Z,85.90
2019-02-23T17:19:15.059Z,86.00
2019-02-23T17:21:44.662Z,86.50
2019-02-23T17:24:14.472Z,86.80
2019-02-23T17:26:44.655Z,87.50
2019-02-23T17:29:14.530Z,87.70
2019-02-23T17:31:44.632Z,88.30
2019-02-23T17:34:14.711Z,88.10
2019-02-23T17:36:44.795Z,88.70
2019-02-23T17:39:14.600Z,89.60
2019-02-23T17:41:44.464Z,90.10
2019-02-23T17:44:14.779Z,90.30
2019-02-23T17:46:44.392Z,90.50
2019-02-23T17:49:14.534Z,90.80
2019-02-23T17:51:44.555Z,91.30
2019-02-23T17:54:14.345Z,91.50
2019-02-23T17:56:44.343Z,91.70
2019-02-23T17:59:14.295Z,92.10
2019-02-23T18:01:44.242Z,92.50
2019-02-23T18:04:14.411Z,92.50
2019-02-23T18:06:44.258Z,92.80
2019-02-23T18:09:14.140Z,92.90
2019-02-23T18:11:44.529Z,93.20
2019-02-23T18:14:15.152Z,93.40
2019-02-23T18:16:44.691Z,93.50
2019-02-23T18:19:14.227Z,93.70
2019-02-23T18:21:44.011Z,93.80
2019-02-23T18:24:14.049Z,94.00
2019-02-23T18:26:43.966Z,94.30
2019-02-23T18:29:13.906Z,94.20
2019-02-23T18:31:44.263Z,94.30
2019-02-23T18:34:14.106Z,94.20
2019-02-23T18:36:43.963Z,94.20
2019-02-23T18:39:13.917Z,94.40
2019-02-23T18:41:44.070Z,94.50
2019-02-23T18:44:13.842Z,94.70
2019-02-23T18:46:43.851Z,95.10
2019-02-23T18:49:13.711Z,95.10
2019-02-23T18:51:43.919Z,95.30
2019-02-23T18:54:13.662Z,95.30
2019-02-23T18:56:45.663Z,95.50
2019-02-23T18:59:15.782Z,95.60
2019-02-23T19:01:45.331Z,95.90
2019-02-23T19:04:14.943Z,95.90
2019-02-23T19:06:44.656Z,96.20
2019-02-23T19:09:14.280Z,96.20
2019-02-23T19:11:43.956Z,96.00
2019-02-23T19:14:14.204Z,95.90
2019-02-23T19:16:44.089Z,95.80
2019-02-23T19:19:13.783Z,95.70
2019-02-23T19:21:46.186Z,95.70
2019-02-23T19:24:16.447Z,95.80
2019-02-23T19:26:46.005Z,95.90
2019-02-23T19:29:15.779Z,96.20
2019-02-23T19:31:45.327Z,96.20
2019-02-23T19:34:15.003Z,95.90
2019-02-23T19:36:44.648Z,95.70
2019-02-23T19:39:14.222Z,95.70
2019-02-23T19:41:45.226Z,96.00
2019-02-23T19:44:15.317Z,96.10
2019-02-23T19:46:47.938Z,96.10
2019-02-23T19:49:17.491Z,96.00
2019-02-23T19:51:47.237Z,95.90
2019-02-23T19:54:16.796Z,96.00
2019-02-23T19:56:47.025Z,96.20
2019-02-23T19:59:16.796Z,96.20
2019-02-23T20:01:46.472Z,96.30
2019-02-23T20:04:16.041Z,96.40
2019-02-23T20:06:45.872Z,96.50
2019-02-23T20:09:15.484Z,96.40
2019-02-23T20:11:46.896Z,96.30
2019-02-23T20:14:16.578Z,96.20
2019-02-23T20:16:46.300Z,96.30
2019-02-23T20:19:16.039Z,96.40
2019-02-23T20:22:05.667Z,96.50
2019-02-23T20:24:35.451Z,96.60
2019-02-23T20:27:05.005Z,96.80
2019-02-23T20:29:37.088Z,96.80
2019-02-23T20:32:06.819Z,96.70
2019-02-23T20:34:40.879Z,96.70
2019-02-23T20:37:10.550Z,96.50
2019-02-23T20:39:40.235Z,96.30
2019-02-23T20:42:09.932Z,96.30
2019-02-23T20:44:41.247Z,96.30
2019-02-23T20:47:11.222Z,96.20
2019-02-23T20:49:40.846Z,96.30
2019-02-23T20:52:10.496Z,96.30
2019-02-23T20:54:40.127Z,96.40
2019-02-23T20:57:13.945Z,96.40
2019-02-23T20:59:41.022Z,96.30
2019-02-23T21:02:11.374Z,96.50
2019-02-23T21:04:41.065Z,96.70
2019-02-23T21:07:11.293Z,96.60
2019-02-23T21:09:40.992Z,96.60
2019-02-23T21:12:10.747Z,96.70
2019-02-23T21:14:41.224Z,96.70
2019-02-23T21:17:10.941Z,96.80
2019-02-23T21:19:40.547Z,96.80
2019-02-23T21:22:10.126Z,96.70
2019-02-23T21:24:39.667Z,96.80
2019-02-23T21:27:12.956Z,96.90
2019-02-23T21:29:40.968Z,97.00
2019-02-23T21:32:10.519Z,97.10
2019-02-23T21:34:40.064Z,96.90
2019-02-23T21:37:11.095Z,97.10
2019-02-23T21:39:40.646Z,97.10
2019-02-23T21:42:10.261Z,97.00
2019-02-23T21:44:40.732Z,96.80
2019-02-23T21:47:11.433Z,96.60
2019-02-23T21:49:40.984Z,96.50
2019-02-23T21:52:10.648Z,96.60
2019-02-23T21:54:40.187Z,96.70
2019-02-23T21:57:09.806Z,96.70
2019-02-23T21:59:39.456Z,96.70
2019-02-23T22:02:09.124Z,96.80
2019-02-23T22:04:38.837Z,96.80
2019-02-23T22:07:18.157Z,97.10
2019-02-23T22:09:51.200Z,97.20
2019-02-23T22:12:22.948Z,97.30
2019-02-23T22:14:52.571Z,97.60
2019-02-23T22:17:22.115Z,97.80
2019-02-23T22:19:51.699Z,97.90
2019-02-23T22:22:21.391Z,97.80
2019-02-23T22:24:51.229Z,97.80
2019-02-23T22:27:20.900Z,97.90
2019-02-23T22:29:50.444Z,97.90
2019-02-23T22:32:21.020Z,97.90
2019-02-23T22:34:50.627Z,97.80
2019-02-23T22:37:20.239Z,97.90
2019-02-23T22:39:49.854Z,98.10
2019-02-23T22:42:19.432Z,97.90
2019-02-23T22:44:49.040Z,97.90
2019-02-23T22:47:18.660Z,98.00
2019-02-23T22:49:48.359Z,98.10
2019-02-23T22:52:18.331Z,98.30
2019-02-23T22:54:48.144Z,98.50
2019-02-23T22:57:18.389Z,98.60
2019-02-23T22:59:48.348Z,98.40
2019-02-23T23:02:18.188Z,98.40
2019-02-23T23:04:48.129Z,98.50
2019-02-23T23:07:18.440Z,98.80
2019-02-23T23:09:48.056Z,98.90
2019-02-23T23:12:18.503Z,99.10
2019-02-23T23:14:48.047Z,99.30
2019-02-23T23:17:17.790Z,99.50
2019-02-23T23:19:47.820Z,99.30
2019-02-23T23:22:17.703Z,99.30
2019-02-23T23:24:47.789Z,99.40
2019-02-23T23:27:18.077Z,99.70
2019-02-23T23:29:47.687Z,99.70
2019-02-23T23:32:17.568Z,99.90
2019-02-23T23:34:47.625Z,99.30
2019-02-23T23:37:17.420Z,99.50
2019-02-23T23:39:47.495Z,99.40
2019-02-23T23:42:17.739Z,99.50
2019-02-23T23:44:47.423Z,99.60
2019-02-23T23:47:17.399Z,99.40
2019-02-23T23:49:47.421Z,99.40
2019-02-23T23:52:17.218Z,99.40
2019-02-23T23:54:47.238Z,99.40
2019-02-23T23:57:17.430Z,99.30
2019-02-23T23:59:47.173Z,99.00
